createdAt,value
2023-01-12T00:01:38.795Z,14.70
2023-01-12T00:04:05.877Z,13.05
2023-01-12T00:06:32.563Z,12.82
2023-01-12T00:09:02.333Z,13.27
2023-01-12T00:11:29.053Z,9.60
2023-01-12T00:13:55.760Z,9.18
2023-01-12T00:16:35.769Z,12.20
2023-01-12T00:19:17.125Z,10.52
2023-01-12T00:21:46.518Z,13.63
2023-01-12T00:24:13.410Z,11.65
2023-01-12T00:26:39.799Z,13.88
2023-01-12T00:29:06.230Z,15.43
2023-01-12T00:31:32.663Z,17.08
2023-01-12T00:33:59.037Z,14.68
2023-01-12T00:36:25.449Z,13.85
2023-01-12T00:38:51.821Z,13.40
2023-01-12T00:41:38.183Z,18.38
2023-01-12T00:44:24.822Z,10.57
2023-01-12T00:46:51.252Z,11.98
2023-01-12T00:49:17.664Z,11.82
2023-01-12T00:51:44.339Z,11.98
2023-01-12T00:54:11.187Z,8.55
2023-01-12T00:56:38.879Z,13.10
2023-01-12T00:59:05.556Z,9.27
2023-01-12T01:01:33.572Z,11.68
2023-01-12T01:04:00.348Z,12.45
2023-01-12T01:06:27.095Z,12.75
2023-01-12T01:08:54.450Z,15.07
2023-01-12T01:11:20.836Z,18.02
2023-01-12T01:13:48.040Z,11.52
2023-01-12T01:16:16.175Z,8.80
2023-01-12T01:18:43.399Z,12.65
2023-01-12T01:21:12.034Z,10.02
2023-01-12T01:23:40.089Z,14.60
2023-01-12T01:26:19.604Z,14.05
2023-01-12T01:28:46.039Z,13.40
2023-01-12T01:31:18.626Z,15.73
2023-01-12T01:33:45.077Z,11.45
2023-01-12T01:36:12.786Z,16.15
2023-01-12T01:38:43.125Z,12.23
2023-01-12T01:41:17.424Z,12.23
2023-01-12T01:44:26.866Z,13.38
2023-01-12T01:46:57.453Z,10.45
2023-01-12T01:49:39.006Z,10.43
2023-01-12T01:52:14.110Z,12.27
2023-01-12T01:54:46.542Z,13.02
2023-01-12T01:57:14.914Z,10.63
2023-01-12T01:59:45.321Z,12.35
2023-01-12T02:02:12.572Z,8.40
2023-01-12T02:04:39.114Z,8.50
2023-01-12T02:07:06.916Z,9.80
2023-01-12T02:09:33.281Z,13.18
2023-01-12T02:12:19.375Z,16.33
2023-01-12T02:15:08.231Z,13.18
2023-01-12T02:17:47.831Z,10.48
2023-01-12T02:20:29.237Z,15.65
2023-01-12T02:23:24.215Z,8.57
2023-01-12T02:26:21.666Z,10.43
2023-01-12T02:29:25.711Z,15.15
2023-01-12T02:32:12.648Z,11.40
2023-01-12T02:35:06.371Z,9.00
2023-01-12T02:37:58.300Z,12.88
2023-01-12T02:40:44.958Z,10.93
2023-01-12T02:43:24.236Z,10.23
2023-01-12T02:45:58.898Z,13.77
2023-01-12T02:48:30.292Z,13.18
2023-01-12T02:51:13.034Z,10.70
2023-01-12T02:53:48.923Z,12.25
2023-01-12T02:56:31.631Z,12.20
2023-01-12T02:59:02.308Z,7.63
2023-01-12T03:01:30.642Z,10.88
2023-01-12T03:04:01.399Z,13.32
2023-01-12T03:07:07.966Z,12.20
2023-01-12T03:09:49.225Z,15.02
2023-01-12T03:12:24.291Z,8.27
2023-01-12T03:14:53.199Z,10.35
2023-01-12T03:17:31.361Z,10.05
2023-01-12T03:20:05.247Z,12.00
2023-01-12T03:22:36.495Z,10.50
2023-01-12T03:25:09.176Z,8.18
2023-01-12T03:27:46.869Z,12.85
2023-01-12T03:30:19.119Z,13.77
2023-01-12T03:32:45.691Z,9.13
2023-01-12T03:35:12.940Z,10.73
2023-01-12T03:37:54.725Z,7.47
2023-01-12T03:40:33.481Z,13.57
2023-01-12T03:43:27.996Z,9.07
2023-01-12T03:46:01.521Z,6.72
2023-01-12T03:48:52.541Z,7.95
2023-01-12T03:51:29.514Z,9.23
2023-01-12T03:53:58.287Z,10.35
2023-01-12T03:56:28.624Z,6.55
2023-01-12T03:58:55.407Z,11.00
2023-01-12T04:01:21.867Z,6.88
2023-01-12T04:03:48.259Z,9.85
2023-01-12T04:06:14.695Z,7.63
2023-01-12T04:08:41.087Z,5.07
2023-01-12T04:11:26.219Z,9.98
2023-01-12T04:13:52.774Z,8.00
2023-01-12T04:16:19.370Z,8.30
2023-01-12T04:18:45.886Z,8.23
2023-01-12T04:21:32.198Z,6.40
2023-01-12T04:24:00.759Z,7.60
2023-01-12T04:26:27.140Z,7.85
2023-01-12T04:28:53.509Z,8.48
2023-01-12T04:31:20.793Z,6.50
2023-01-12T04:33:47.165Z,12.07
2023-01-12T04:36:13.607Z,7.93
2023-01-12T04:38:41.736Z,10.15
2023-01-12T04:41:08.750Z,7.68
2023-01-12T04:43:36.500Z,6.50
2023-01-12T04:46:07.516Z,9.52
2023-01-12T04:48:33.974Z,7.13
2023-01-12T04:51:01.422Z,7.97
2023-01-12T04:53:28.255Z,12.18
2023-01-12T04:55:54.784Z,7.63
2023-01-12T04:58:21.174Z,13.77
2023-01-12T05:00:47.809Z,9.77
2023-01-12T05:03:15.256Z,6.72
2023-01-12T05:05:41.763Z,10.82
2023-01-12T05:08:28.559Z,14.20
2023-01-12T05:10:57.641Z,5.28
2023-01-12T05:13:25.900Z,4.43
2023-01-12T05:15:52.468Z,9.40
2023-01-12T05:18:20.961Z,13.75
2023-01-12T05:20:47.463Z,6.75
2023-01-12T05:23:13.854Z,10.38
2023-01-12T05:25:40.233Z,8.13
2023-01-12T05:28:06.598Z,9.88
2023-01-12T05:30:32.995Z,11.93
2023-01-12T05:32:59.509Z,6.53
2023-01-12T05:35:25.933Z,8.88
2023-01-12T05:37:55.534Z,11.32
2023-01-12T05:40:22.080Z,9.40
2023-01-12T05:43:09.436Z,12.45
2023-01-12T05:45:36.182Z,11.95
2023-01-12T05:48:02.587Z,10.82
2023-01-12T05:50:28.977Z,8.63
2023-01-12T05:52:56.228Z,8.27
2023-01-12T05:55:22.648Z,7.88
2023-01-12T05:57:49.021Z,8.48
2023-01-12T06:00:18.139Z,7.82
2023-01-12T06:02:44.544Z,12.48
2023-01-12T06:05:10.953Z,7.60
2023-01-12T06:07:38.037Z,10.13
2023-01-12T06:10:06.090Z,5.63
2023-01-12T06:12:51.191Z,7.28
2023-01-12T06:15:18.454Z,9.57
2023-01-12T06:17:44.890Z,12.30
2023-01-12T06:20:14.911Z,10.35
2023-01-12T06:22:41.315Z,12.13
2023-01-12T06:25:08.144Z,10.05
2023-01-12T06:27:35.469Z,6.97
2023-01-12T06:30:01.941Z,10.70
2023-01-12T06:32:28.607Z,17.85
2023-01-12T06:34:55.193Z,12.93
2023-01-12T06:37:21.675Z,10.80
2023-01-12T06:39:48.046Z,8.15
2023-01-12T06:42:29.692Z,15.15
2023-01-12T06:44:57.785Z,4.95
2023-01-12T06:47:25.146Z,9.88
2023-01-12T06:49:51.876Z,12.57
2023-01-12T06:52:24.319Z,8.95
2023-01-12T06:54:51.596Z,8.15
2023-01-12T06:57:18.395Z,8.23
2023-01-12T06:59:45.108Z,7.28
2023-01-12T07:02:13.491Z,7.07
2023-01-12T07:04:41.142Z,8.15
2023-01-12T07:07:09.147Z,9.95
2023-01-12T07:09:36.198Z,7.53
2023-01-12T07:12:03.815Z,8.13
2023-01-12T07:14:30.413Z,7.03
2023-01-12T07:16:56.785Z,9.35
2023-01-12T07:19:23.213Z,9.27
2023-01-12T07:21:52.434Z,9.80
2023-01-12T07:24:18.817Z,11.02
2023-01-12T07:26:49.676Z,11.27
2023-01-12T07:29:16.534Z,8.15
2023-01-12T07:31:44.411Z,7.13
2023-01-12T07:34:11.870Z,10.25
2023-01-12T07:36:38.501Z,11.48
2023-01-12T07:39:04.858Z,8.77
2023-01-12T07:41:49.903Z,9.07
2023-01-12T07:44:16.643Z,6.32
2023-01-12T07:46:43.599Z,8.30
2023-01-12T07:49:10.173Z,10.57
2023-01-12T07:51:38.344Z,10.13
2023-01-12T07:54:04.724Z,7.82
2023-01-12T07:56:31.229Z,10.77
2023-01-12T07:58:57.716Z,7.13
2023-01-12T08:01:24.583Z,11.30
2023-01-12T08:03:51.098Z,7.32
2023-01-12T08:06:18.558Z,13.40
2023-01-12T08:08:45.197Z,10.13
2023-01-12T08:11:12.157Z,6.78
2023-01-12T08:13:38.982Z,8.25
2023-01-12T08:16:14.551Z,6.35
2023-01-12T08:18:51.264Z,3.40
2023-01-12T08:21:24.528Z,7.10
2023-01-12T08:23:56.136Z,10.52
2023-01-12T08:26:31.467Z,5.53
2023-01-12T08:29:15.843Z,6.68
2023-01-12T08:31:42.684Z,10.88
2023-01-12T08:34:10.653Z,7.53
2023-01-12T08:36:38.842Z,5.40
2023-01-12T08:39:05.275Z,5.55
2023-01-12T08:41:35.124Z,6.63
2023-01-12T08:44:03.607Z,4.05
2023-01-12T08:46:37.306Z,3.10
2023-01-12T08:49:16.879Z,3.85
2023-01-12T08:51:44.468Z,4.03
2023-01-12T08:54:12.796Z,5.03
2023-01-12T08:56:39.577Z,3.67
2023-01-12T08:59:06.345Z,5.78
2023-01-12T09:01:33.591Z,9.57
2023-01-12T09:04:00.125Z,8.55
2023-01-12T09:06:31.990Z,8.30
2023-01-12T09:09:01.393Z,3.10
2023-01-12T09:11:29.562Z,3.38
2023-01-12T09:13:56.240Z,9.75
2023-01-12T09:16:22.845Z,12.85
2023-01-12T09:18:49.355Z,6.10
2023-01-12T09:21:20.806Z,8.07
2023-01-12T09:23:49.308Z,8.98
2023-01-12T09:26:19.246Z,7.13
2023-01-12T09:28:46.639Z,8.10
2023-01-12T09:31:19.211Z,9.95
2023-01-12T09:33:46.935Z,10.77
2023-01-12T09:36:19.360Z,11.45
2023-01-12T09:38:46.714Z,3.83
2023-01-12T09:41:44.064Z,2.65
2023-01-12T09:44:41.920Z,2.83
2023-01-12T09:47:21.545Z,5.45
2023-01-12T09:50:08.684Z,6.65
2023-01-12T09:52:48.271Z,2.28
2023-01-12T09:55:20.778Z,4.38
2023-01-12T09:58:18.907Z,6.50
2023-01-12T10:00:51.727Z,4.65
2023-01-12T10:03:26.955Z,6.68
2023-01-12T10:05:58.491Z,2.95
2023-01-12T10:08:40.971Z,5.88
2023-01-12T10:11:22.267Z,1.38
2023-01-12T10:13:51.455Z,1.95
2023-01-12T10:16:44.003Z,5.95
2023-01-12T10:19:39.015Z,2.60
2023-01-12T10:22:38.624Z,3.03
2023-01-12T10:25:35.461Z,8.30
2023-01-12T10:28:26.577Z,4.50
2023-01-12T10:30:56.209Z,2.03
2023-01-12T10:33:26.048Z,4.53
2023-01-12T10:36:07.662Z,2.42
2023-01-12T10:38:39.176Z,0.35
2023-01-12T10:41:17.034Z,3.28
2023-01-12T10:43:46.419Z,2.25
2023-01-12T10:46:21.854Z,1.95
2023-01-12T10:48:51.081Z,1.45
2023-01-12T10:51:29.654Z,2.65
2023-01-12T10:54:01.259Z,2.50
2023-01-12T10:56:43.694Z,1.75
2023-01-12T10:59:12.908Z,3.67
2023-01-12T11:02:13.975Z,1.92
2023-01-12T11:04:50.010Z,2.15
2023-01-12T11:07:20.018Z,1.35
2023-01-12T11:09:46.506Z,2.22
2023-01-12T11:12:36.439Z,1.80
2023-01-12T11:15:10.235Z,0.52
2023-01-12T11:17:49.966Z,2.25
2023-01-12T11:20:29.540Z,0.47
2023-01-12T11:22:59.496Z,1.73
2023-01-12T11:25:27.907Z,1.95
2023-01-12T11:27:59.921Z,0.88
2023-01-12T11:31:01.630Z,4.32
2023-01-12T11:33:35.382Z,0.73
2023-01-12T11:36:16.370Z,4.35
2023-01-12T11:38:46.678Z,3.10
2023-01-12T11:41:25.374Z,0.77
2023-01-12T11:44:02.298Z,1.55
2023-01-12T11:46:38.848Z,0.45
2023-01-12T11:49:22.836Z,3.30
2023-01-12T11:54:19.404Z,3.13
2023-01-12T11:57:00.655Z,2.25
2023-01-12T11:59:38.586Z,1.40
2023-01-12T12:02:33.201Z,1.30
2023-01-12T12:05:15.434Z,2.03
2023-01-12T12:08:06.168Z,3.13
2023-01-12T12:10:57.469Z,1.73
2023-01-12T12:14:01.768Z,1.42
2023-01-12T12:17:03.402Z,1.33
2023-01-12T12:20:14.790Z,1.10
2023-01-12T12:22:56.615Z,0.88
2023-01-12T12:25:32.288Z,1.08
2023-01-12T12:28:08.186Z,3.08
2023-01-12T12:31:01.320Z,1.67
2023-01-12T12:33:27.775Z,0.45
2023-01-12T12:36:27.568Z,0.55
2023-01-12T12:39:21.034Z,3.13
2023-01-12T12:42:21.495Z,1.45
2023-01-12T12:45:16.903Z,2.22
2023-01-12T12:47:57.461Z,2.35
2023-01-12T12:50:29.202Z,0.68
2023-01-12T12:53:19.187Z,5.20
2023-01-12T12:55:46.874Z,4.05
2023-01-12T12:58:22.340Z,0.82
2023-01-12T13:00:50.588Z,1.27
2023-01-12T13:03:50.561Z,4.40
2023-01-12T13:06:22.157Z,1.60
2023-01-12T13:08:54.096Z,1.70
2023-01-12T13:11:41.285Z,0.90
2023-01-12T13:14:19.045Z,2.83
2023-01-12T13:16:51.895Z,0.80
2023-01-12T13:19:39.729Z,1.67
2023-01-12T13:22:45.008Z,0.63
2023-01-12T13:25:20.571Z,0.45
2023-01-12T13:27:57.685Z,1.20
2023-01-12T13:30:26.821Z,1.25
2023-01-12T13:32:53.553Z,1.38
2023-01-12T13:35:27.439Z,2.30
2023-01-12T13:38:03.137Z,0.60
2023-01-12T13:40:31.089Z,3.42
2023-01-12T13:43:15.154Z,3.03
2023-01-12T13:46:03.664Z,0.45
2023-01-12T13:48:32.218Z,1.55
2023-01-12T13:51:02.007Z,0.55
2023-01-12T13:53:31.055Z,0.40
2023-01-12T13:56:05.622Z,1.95
2023-01-12T13:58:42.244Z,2.67
2023-01-12T14:01:18.787Z,1.08
2023-01-12T14:04:09.009Z,3.10
2023-01-12T14:06:50.111Z,1.98
2023-01-12T14:10:04.763Z,0.60
2023-01-12T14:12:55.618Z,1.85
2023-01-12T14:15:56.261Z,1.92
2023-01-12T14:18:25.411Z,2.42
2023-01-12T14:20:54.228Z,1.13
2023-01-12T14:23:23.944Z,1.33
2023-01-12T14:26:08.731Z,4.78
2023-01-12T14:28:36.894Z,1.50
2023-01-12T14:31:06.036Z,2.80
2023-01-12T14:33:34.398Z,1.77
2023-01-12T14:36:13.034Z,0.65
2023-01-12T14:38:42.230Z,1.15
2023-01-12T14:41:34.473Z,0.43
2023-01-12T14:44:20.103Z,0.50
2023-01-12T14:46:54.309Z,2.78
2023-01-12T14:49:32.564Z,0.52
2023-01-12T14:52:02.829Z,1.25
2023-01-12T14:54:31.782Z,0.80
2023-01-12T14:57:28.508Z,0.45
2023-01-12T14:59:55.411Z,0.73
2023-01-12T15:02:36.313Z,2.38
2023-01-12T15:05:06.271Z,1.52
2023-01-12T15:07:39.550Z,0.82
2023-01-12T15:10:09.056Z,2.88
2023-01-12T15:12:38.968Z,16.75
2023-01-12T15:15:47.405Z,1.20
2023-01-12T15:18:32.401Z,1.45
2023-01-12T15:21:18.297Z,1.13
2023-01-12T15:24:03.390Z,0.30
2023-01-12T15:26:30.035Z,1.20
2023-01-12T15:28:56.994Z,2.05
2023-01-12T15:31:32.571Z,1.58
2023-01-12T15:34:00.214Z,1.35
2023-01-12T15:36:26.616Z,1.13
2023-01-12T15:38:53.438Z,0.65
2023-01-12T15:41:41.248Z,1.23
2023-01-12T15:44:12.908Z,1.38
2023-01-12T15:46:39.456Z,1.58
2023-01-12T15:49:06.038Z,0.65
2023-01-12T15:51:33.595Z,2.17
2023-01-12T15:54:00.149Z,2.33
2023-01-12T15:56:26.828Z,0.57
2023-01-12T15:58:53.189Z,0.73
2023-01-12T16:01:20.563Z,3.35
2023-01-12T16:04:09.939Z,2.00
2023-01-12T16:06:37.484Z,1.20
2023-01-12T16:09:03.888Z,4.15
2023-01-12T16:11:30.808Z,2.65
2023-01-12T16:13:57.731Z,1.30
2023-01-12T16:16:26.032Z,1.55
2023-01-12T16:18:52.533Z,2.17
2023-01-12T16:21:22.642Z,5.63
2023-01-12T16:23:49.761Z,2.85
2023-01-12T16:26:16.255Z,1.27
2023-01-12T16:28:43.240Z,5.22
2023-01-12T16:31:12.731Z,1.38
2023-01-12T16:33:40.733Z,4.82
2023-01-12T16:36:08.053Z,1.83
2023-01-12T16:38:35.482Z,1.30
2023-01-12T16:41:15.505Z,2.05
2023-01-12T16:43:42.303Z,1.13
2023-01-12T16:46:10.118Z,3.15
2023-01-12T16:48:39.299Z,3.83
2023-01-12T16:51:14.264Z,3.13
2023-01-12T16:53:41.757Z,2.63
2023-01-12T16:56:14.101Z,3.90
2023-01-12T16:58:42.510Z,4.68
2023-01-12T17:01:11.454Z,2.80
2023-01-12T17:03:38.738Z,5.60
2023-01-12T17:06:11.099Z,5.95
2023-01-12T17:08:37.687Z,5.35
2023-01-12T17:11:06.564Z,2.33
2023-01-12T17:13:33.387Z,2.90
2023-01-12T17:16:00.175Z,1.85
2023-01-12T17:18:27.474Z,1.08
2023-01-12T17:21:06.870Z,1.13
2023-01-12T17:23:33.728Z,1.58
2023-01-12T17:26:07.679Z,2.42
2023-01-12T17:28:35.113Z,1.52
2023-01-12T17:31:09.639Z,0.98
2023-01-12T17:33:38.379Z,1.50
2023-01-12T17:36:06.994Z,1.23
2023-01-12T17:38:34.980Z,1.52
2023-01-12T17:41:07.447Z,2.05
2023-01-12T17:43:34.345Z,2.28
2023-01-12T17:46:02.153Z,1.83
2023-01-12T17:48:28.671Z,2.42
2023-01-12T17:50:55.123Z,1.83
2023-01-12T17:53:24.178Z,3.20
2023-01-12T17:55:53.146Z,1.27
2023-01-12T17:58:20.188Z,1.10
2023-01-12T18:00:46.737Z,1.33
2023-01-12T18:03:13.391Z,1.20
2023-01-12T18:05:42.469Z,2.58
2023-01-12T18:08:08.996Z,1.95
2023-01-12T18:10:35.508Z,3.20
2023-01-12T18:13:02.001Z,2.47
2023-01-12T18:15:29.646Z,2.40
2023-01-12T18:17:56.158Z,1.48
2023-01-12T18:20:24.050Z,4.72
2023-01-12T18:22:54.690Z,2.92
2023-01-12T18:25:21.332Z,1.38
2023-01-12T18:27:47.774Z,4.80
2023-01-12T18:30:14.311Z,11.52
2023-01-12T18:32:41.689Z,1.83
2023-01-12T18:35:08.416Z,5.97
2023-01-12T18:37:35.097Z,2.80
2023-01-12T18:40:01.583Z,4.35
2023-01-12T18:42:46.998Z,2.53
2023-01-12T18:45:13.570Z,1.17
2023-01-12T18:47:58.671Z,1.35
2023-01-12T18:50:43.596Z,4.32
2023-01-12T18:53:31.740Z,2.85
2023-01-12T18:56:01.739Z,2.35
2023-01-12T18:58:33.673Z,2.35
2023-01-12T19:01:13.896Z,1.50
2023-01-12T19:03:41.368Z,1.23
2023-01-12T19:06:14.991Z,2.63
2023-01-12T19:08:59.945Z,1.10
2023-01-12T19:11:26.421Z,0.82
2023-01-12T19:14:11.708Z,1.73
2023-01-12T19:16:59.892Z,1.02
2023-01-12T19:19:27.310Z,0.98
2023-01-12T19:22:12.876Z,1.85
2023-01-12T19:24:58.311Z,0.60
2023-01-12T19:27:43.278Z,1.65
2023-01-12T19:30:10.458Z,1.77
2023-01-12T19:32:43.517Z,1.52
2023-01-12T19:35:11.611Z,0.95
2023-01-12T19:37:39.157Z,0.77
2023-01-12T19:40:35.666Z,0.63
2023-01-12T19:43:20.160Z,1.05
2023-01-12T19:45:49.101Z,1.08
2023-01-12T19:48:17.695Z,0.85
2023-01-12T19:50:44.938Z,0.43
2023-01-12T19:53:22.505Z,0.70
2023-01-12T19:55:50.191Z,1.70
2023-01-12T19:58:17.020Z,2.40
2023-01-12T20:00:47.936Z,4.32
2023-01-12T20:03:17.551Z,1.65
2023-01-12T20:05:53.088Z,2.88
2023-01-12T20:08:22.347Z,1.10
2023-01-12T20:11:02.000Z,2.28
2023-01-12T20:13:29.780Z,0.80
2023-01-12T20:15:59.454Z,0.88
2023-01-12T20:18:25.930Z,2.53
2023-01-12T20:20:53.404Z,1.33
2023-01-12T20:23:20.346Z,0.80
2023-01-12T20:25:46.813Z,1.40
2023-01-12T20:28:14.127Z,1.77
2023-01-12T20:30:42.708Z,2.22
2023-01-12T20:33:10.388Z,1.30
2023-01-12T20:35:44.640Z,0.50
2023-01-12T20:38:15.668Z,1.80
2023-01-12T20:40:43.471Z,1.27
2023-01-12T20:43:10.215Z,2.85
2023-01-12T20:45:36.990Z,1.20
2023-01-12T20:48:03.484Z,0.85
2023-01-12T20:50:30.922Z,1.05
2023-01-12T20:52:57.467Z,1.73
2023-01-12T20:55:23.901Z,1.10
2023-01-12T20:57:50.458Z,1.25
2023-01-12T21:00:17.525Z,1.20
2023-01-12T21:02:44.141Z,0.50
2023-01-12T21:05:10.885Z,1.52
2023-01-12T21:07:37.318Z,1.50
2023-01-12T21:10:04.337Z,1.83
2023-01-12T21:12:30.717Z,1.13
2023-01-12T21:14:59.471Z,2.42
2023-01-12T21:17:26.306Z,0.57
2023-01-12T21:19:52.808Z,3.53
2023-01-12T21:22:20.759Z,1.60
2023-01-12T21:24:47.397Z,1.40
2023-01-12T21:27:13.817Z,1.52
2023-01-12T21:29:40.283Z,0.50
2023-01-12T21:32:06.782Z,3.20
2023-01-12T21:34:33.354Z,0.98
2023-01-12T21:36:59.847Z,0.90
2023-01-12T21:39:29.465Z,3.75
2023-01-12T21:42:14.978Z,2.70
2023-01-12T21:44:41.542Z,1.75
2023-01-12T21:47:07.982Z,1.50
2023-01-12T21:49:34.448Z,0.60
2023-01-12T21:52:00.842Z,0.20
2023-01-12T21:54:31.161Z,1.10
2023-01-12T21:56:59.018Z,0.40
2023-01-12T21:59:25.434Z,1.05
2023-01-12T22:01:51.980Z,1.10
2023-01-12T22:04:18.691Z,0.50
2023-01-12T22:06:45.141Z,1.10
2023-01-12T22:09:11.913Z,1.13
2023-01-12T22:11:38.340Z,1.40
2023-01-12T22:14:04.794Z,1.20
2023-01-12T22:16:31.299Z,0.73
2023-01-12T22:18:57.724Z,1.15
2023-01-12T22:21:24.229Z,0.38
2023-01-12T22:23:50.711Z,0.60
2023-01-12T22:26:18.500Z,1.15
2023-01-12T22:28:47.696Z,0.90
2023-01-12T22:31:20.107Z,0.38
2023-01-12T22:33:48.962Z,0.30
2023-01-12T22:36:15.484Z,0.63
2023-01-12T22:38:42.342Z,0.93
2023-01-12T22:41:10.971Z,0.70
2023-01-12T22:43:40.732Z,0.45
2023-01-12T22:46:26.118Z,0.40
2023-01-12T22:48:55.345Z,1.50
2023-01-12T22:51:26.441Z,3.03
2023-01-12T22:53:54.506Z,2.75
2023-01-12T22:56:21.436Z,0.57
2023-01-12T22:58:49.543Z,1.67
2023-01-12T23:01:17.424Z,0.93
2023-01-12T23:03:44.783Z,0.93
2023-01-12T23:06:16.108Z,0.68
2023-01-12T23:08:43.914Z,1.20
2023-01-12T23:11:21.253Z,2.60
2023-01-12T23:13:48.433Z,2.60
2023-01-12T23:16:17.479Z,1.40
2023-01-12T23:18:45.812Z,1.13
2023-01-12T23:21:33.265Z,0.57
2023-01-12T23:24:00.278Z,0.63
2023-01-12T23:26:29.935Z,0.95
2023-01-12T23:29:00.376Z,0.98
2023-01-12T23:31:30.729Z,1.48
2023-01-12T23:33:57.867Z,1.10
2023-01-12T23:36:29.745Z,0.80
2023-01-12T23:39:01.171Z,2.92
2023-01-12T23:41:29.302Z,1.00
2023-01-12T23:43:58.740Z,2.92
2023-01-12T23:46:26.153Z,1.88
2023-01-12T23:48:55.278Z,2.92
2023-01-12T23:51:24.900Z,0.52
2023-01-12T23:53:58.904Z,1.95
2023-01-12T23:56:27.707Z,0.95
2023-01-12T23:58:54.280Z,2.05
